LHA249 KPAE-KBZN
Flight info
| Callsign | LHA249 |
|---|---|
| Flight time | 1h 11m |
| Altitude | 39000 |
| Route | SEA DCT NORMY DCT MODDA DCT STEVS DCT EATZZ |
| Aircraft | A20N/M-SDE1E2FGIJ1RWYZE3/S |
Departure
| Time | 2026-04-25 19:06 |
|---|---|
| Airport | Seattle Paine Field International Airport (KPAE) |
Arrival
| Time | 2026-04-25 20:18 |
|---|---|
| Airport | Bozeman Yellowstone International Airport (KBZN) |
| Time | Latitude | Longitude | Altitude | Speed | Heading |
|---|---|---|---|---|---|
| 2026-04-25 18:43 | 47.90842 | -122.27938 | 600 ft | 0 kts | 65° |
| 2026-04-25 19:00 | 47.90839 | -122.27946 | 600 ft | 2 kts | 65° |
| 2026-04-25 19:00 | 47.90836 | -122.27959 | 600 ft | 2 kts | 60° |
| 2026-04-25 19:01 | 47.90812 | -122.27984 | 600 ft | 2 kts | 12° |
| 2026-04-25 19:01 | 47.90797 | -122.27985 | 600 ft | 2 kts | 350° |
| 2026-04-25 19:01 | 47.90783 | -122.27978 | 601 ft | 1 kts | 328° |
| 2026-04-25 19:01 | 47.90778 | -122.27972 | 601 ft | 1 kts | 320° |
| 2026-04-25 19:02 | 47.90776 | -122.27970 | 601 ft | 0 kts | 322° |
| 2026-04-25 19:03 | 47.90785 | -122.27982 | 601 ft | 5 kts | 321° |
| 2026-04-25 19:03 | 47.90848 | -122.28076 | 598 ft | 12 kts | 283° |
| 2026-04-25 19:03 | 47.90779 | -122.28156 | 598 ft | 14 kts | 212° |
| 2026-04-25 19:04 | 47.90629 | -122.28333 | 595 ft | 18 kts | 179° |
| 2026-04-25 19:04 | 47.90499 | -122.28332 | 595 ft | 19 kts | 179° |
| 2026-04-25 19:05 | 47.90221 | -122.28326 | 595 ft | 20 kts | 181° |
| 2026-04-25 19:05 | 47.89899 | -122.28314 | 580 ft | 26 kts | 179° |
| 2026-04-25 19:05 | 47.89781 | -122.28450 | 565 ft | 28 kts | 274° |
| 2026-04-25 19:06 | 47.89985 | -122.28539 | 574 ft | 59 kts | 359° |
| 2026-04-25 19:06 | 47.91730 | -122.28566 | 917 ft | 163 kts | 359° |
| 2026-04-25 19:06 | 47.92828 | -122.28577 | 1802 ft | 160 kts | 358° |
| 2026-04-25 19:07 | 47.94839 | -122.27495 | 3171 ft | 180 kts | 56° |
| 2026-04-25 19:07 | 47.95089 | -122.25622 | 3665 ft | 202 kts | 101° |
| 2026-04-25 19:08 | 47.92987 | -122.22395 | 4706 ft | 247 kts | 145° |
| 2026-04-25 19:08 | 47.91489 | -122.20972 | 5309 ft | 267 kts | 146° |
| 2026-04-25 19:09 | 47.86629 | -122.16245 | 8121 ft | 287 kts | 144° |
| 2026-04-25 19:09 | 47.85545 | -122.15160 | 8756 ft | 290 kts | 143° |
| 2026-04-25 19:09 | 47.81608 | -122.11174 | 10832 ft | 307 kts | 143° |
| 2026-04-25 19:10 | 47.79781 | -122.09310 | 11369 ft | 326 kts | 143° |
| 2026-04-25 19:10 | 47.77858 | -122.07352 | 11887 ft | 344 kts | 143° |
| 2026-04-25 19:10 | 47.75833 | -122.05292 | 12387 ft | 363 kts | 143° |
| 2026-04-25 19:10 | 47.73714 | -122.03142 | 13040 ft | 374 kts | 143° |
| 2026-04-25 19:11 | 47.71574 | -122.00978 | 13876 ft | 379 kts | 143° |
| 2026-04-25 19:11 | 47.69369 | -121.98749 | 14681 ft | 384 kts | 143° |
| 2026-04-25 19:11 | 47.67168 | -121.96521 | 15470 ft | 389 kts | 143° |
| 2026-04-25 19:11 | 47.64929 | -121.94199 | 16219 ft | 393 kts | 139° |
| 2026-04-25 19:12 | 47.63031 | -121.91281 | 16935 ft | 393 kts | 125° |
| 2026-04-25 19:12 | 47.61424 | -121.88055 | 17632 ft | 397 kts | 122° |
| 2026-04-25 19:12 | 47.59808 | -121.84717 | 18310 ft | 402 kts | 123° |
| 2026-04-25 19:12 | 47.58144 | -121.81370 | 18967 ft | 407 kts | 123° |
| 2026-04-25 19:13 | 47.56435 | -121.78030 | 19657 ft | 411 kts | 124° |
| 2026-04-25 19:13 | 47.54676 | -121.74655 | 20367 ft | 414 kts | 124° |
| 2026-04-25 19:13 | 47.52911 | -121.71301 | 21066 ft | 416 kts | 125° |
| 2026-04-25 19:13 | 47.51131 | -121.67936 | 21742 ft | 419 kts | 125° |
| 2026-04-25 19:14 | 47.49325 | -121.64535 | 22399 ft | 422 kts | 125° |
| 2026-04-25 19:14 | 47.48110 | -121.62252 | 22827 ft | 423 kts | 125° |
| 2026-04-25 19:14 | 47.45688 | -121.57711 | 23637 ft | 427 kts | 125° |
| 2026-04-25 19:14 | 47.43948 | -121.54154 | 24236 ft | 427 kts | 118° |
| 2026-04-25 19:15 | 47.42577 | -121.50269 | 24818 ft | 427 kts | 110° |
| 2026-04-25 19:15 | 47.41585 | -121.46210 | 25342 ft | 427 kts | 103° |
| 2026-04-25 19:15 | 47.40810 | -121.41964 | 25852 ft | 430 kts | 102° |
| 2026-04-25 19:15 | 47.40066 | -121.37675 | 26342 ft | 433 kts | 102° |
| 2026-04-25 19:16 | 47.39312 | -121.33321 | 26816 ft | 436 kts | 102° |
| 2026-04-25 19:16 | 47.38547 | -121.28952 | 27292 ft | 439 kts | 102° |
| 2026-04-25 19:16 | 47.37756 | -121.24472 | 27739 ft | 442 kts | 103° |
| 2026-04-25 19:16 | 47.36971 | -121.20077 | 28164 ft | 445 kts | 103° |
| 2026-04-25 19:17 | 47.36183 | -121.15686 | 28580 ft | 447 kts | 102° |
| 2026-04-25 19:17 | 47.35390 | -121.11279 | 29035 ft | 447 kts | 102° |
| 2026-04-25 19:17 | 47.34598 | -121.06898 | 29590 ft | 445 kts | 102° |
| 2026-04-25 19:17 | 47.33796 | -121.02474 | 30170 ft | 443 kts | 102° |
| 2026-04-25 19:18 | 47.33003 | -120.98109 | 30712 ft | 441 kts | 102° |
| 2026-04-25 19:18 | 47.32215 | -120.93768 | 31189 ft | 439 kts | 102° |
| 2026-04-25 19:18 | 47.31427 | -120.89444 | 31599 ft | 439 kts | 102° |
| 2026-04-25 19:18 | 47.30629 | -120.85075 | 31963 ft | 439 kts | 102° |
| 2026-04-25 19:19 | 47.29832 | -120.80723 | 32300 ft | 440 kts | 102° |
| 2026-04-25 19:19 | 47.29041 | -120.76407 | 32580 ft | 440 kts | 102° |
| 2026-04-25 19:19 | 47.28249 | -120.72100 | 32855 ft | 440 kts | 102° |
| 2026-04-25 19:19 | 47.27711 | -120.69177 | 33037 ft | 441 kts | 102° |
| 2026-04-25 19:20 | 47.26641 | -120.63389 | 33379 ft | 442 kts | 102° |
| 2026-04-25 19:20 | 47.25828 | -120.59007 | 33648 ft | 442 kts | 102° |
| 2026-04-25 19:20 | 47.25064 | -120.54636 | 33895 ft | 441 kts | 99° |
| 2026-04-25 19:20 | 47.24448 | -120.50201 | 34162 ft | 440 kts | 96° |
| 2026-04-25 19:21 | 47.23951 | -120.45785 | 34403 ft | 440 kts | 96° |
| 2026-04-25 19:21 | 47.22973 | -120.36871 | 34875 ft | 441 kts | 96° |
| 2026-04-25 19:21 | 47.22480 | -120.32395 | 35104 ft | 442 kts | 96° |
| 2026-04-25 19:22 | 47.21986 | -120.27922 | 35329 ft | 442 kts | 97° |
| 2026-04-25 19:22 | 47.21495 | -120.23491 | 35547 ft | 443 kts | 97° |
| 2026-04-25 19:22 | 47.20496 | -120.14557 | 35972 ft | 445 kts | 97° |
| 2026-04-25 19:23 | 47.19994 | -120.10094 | 36178 ft | 445 kts | 97° |
| 2026-04-25 19:23 | 47.18978 | -120.01115 | 36576 ft | 446 kts | 97° |
| 2026-04-25 19:23 | 47.18464 | -119.96596 | 36758 ft | 447 kts | 97° |
| 2026-04-25 19:24 | 47.17950 | -119.92094 | 36935 ft | 448 kts | 97° |
| 2026-04-25 19:24 | 47.17440 | -119.87650 | 37102 ft | 449 kts | 97° |
| 2026-04-25 19:24 | 47.16394 | -119.78565 | 37385 ft | 452 kts | 97° |
| 2026-04-25 19:25 | 47.15341 | -119.69499 | 37635 ft | 455 kts | 97° |
| 2026-04-25 19:25 | 47.14804 | -119.64900 | 37754 ft | 456 kts | 97° |
| 2026-04-25 19:25 | 47.14269 | -119.60325 | 37872 ft | 458 kts | 97° |
| 2026-04-25 19:26 | 47.13723 | -119.55675 | 37985 ft | 459 kts | 98° |
| 2026-04-25 19:26 | 47.13181 | -119.51093 | 38096 ft | 460 kts | 97° |
| 2026-04-25 19:26 | 47.12628 | -119.46426 | 38197 ft | 462 kts | 97° |
| 2026-04-25 19:26 | 47.12076 | -119.41784 | 38321 ft | 463 kts | 97° |
| 2026-04-25 19:27 | 47.11518 | -119.37099 | 38452 ft | 464 kts | 98° |
| 2026-04-25 19:27 | 47.11151 | -119.34028 | 38546 ft | 464 kts | 98° |
| 2026-04-25 19:27 | 47.10395 | -119.27741 | 38715 ft | 466 kts | 98° |
| 2026-04-25 19:27 | 47.09836 | -119.23103 | 38821 ft | 467 kts | 98° |
| 2026-04-25 19:28 | 47.09265 | -119.18380 | 38936 ft | 468 kts | 99° |
| 2026-04-25 19:28 | 47.08699 | -119.13717 | 38951 ft | 469 kts | 98° |
| 2026-04-25 19:28 | 47.07542 | -119.04247 | 38954 ft | 470 kts | 99° |
| 2026-04-25 19:29 | 47.06383 | -118.94824 | 38952 ft | 470 kts | 99° |
| 2026-04-25 19:29 | 47.05215 | -118.85394 | 38946 ft | 470 kts | 99° |
| 2026-04-25 19:30 | 47.04049 | -118.76048 | 38947 ft | 470 kts | 99° |
| 2026-04-25 19:30 | 47.02861 | -118.66584 | 38952 ft | 471 kts | 99° |
| 2026-04-25 19:31 | 47.01672 | -118.57180 | 38955 ft | 471 kts | 99° |
| 2026-04-25 19:31 | 47.00476 | -118.47790 | 38959 ft | 470 kts | 99° |
| 2026-04-25 19:32 | 46.99266 | -118.38341 | 38961 ft | 470 kts | 99° |
| 2026-04-25 19:32 | 46.98260 | -118.30535 | 38963 ft | 471 kts | 100° |
| 2026-04-25 19:33 | 46.96829 | -118.19521 | 38963 ft | 472 kts | 100° |
| 2026-04-25 19:33 | 46.95596 | -118.10116 | 38960 ft | 472 kts | 99° |
| 2026-04-25 19:34 | 46.94347 | -118.00628 | 38963 ft | 472 kts | 100° |
| 2026-04-25 19:34 | 46.93093 | -117.91160 | 38960 ft | 473 kts | 100° |
| 2026-04-25 19:35 | 46.91839 | -117.81763 | 38960 ft | 473 kts | 100° |
| 2026-04-25 19:35 | 46.90570 | -117.72320 | 38959 ft | 473 kts | 100° |
| 2026-04-25 19:36 | 46.89293 | -117.62884 | 38953 ft | 473 kts | 100° |
| 2026-04-25 19:36 | 46.88005 | -117.53427 | 38946 ft | 474 kts | 100° |
| 2026-04-25 19:37 | 46.86717 | -117.44018 | 38943 ft | 473 kts | 100° |
| 2026-04-25 19:37 | 46.85416 | -117.34588 | 38946 ft | 473 kts | 101° |
| 2026-04-25 19:38 | 46.84098 | -117.25092 | 38949 ft | 473 kts | 101° |
| 2026-04-25 19:38 | 46.82791 | -117.15736 | 38954 ft | 474 kts | 101° |
| 2026-04-25 19:39 | 46.81468 | -117.06329 | 38957 ft | 474 kts | 101° |
| 2026-04-25 19:39 | 46.80140 | -116.96935 | 38954 ft | 475 kts | 101° |
| 2026-04-25 19:40 | 46.78794 | -116.87480 | 38953 ft | 474 kts | 101° |
| 2026-04-25 19:40 | 46.77454 | -116.78129 | 38946 ft | 474 kts | 101° |
| 2026-04-25 19:41 | 46.76099 | -116.68730 | 38942 ft | 474 kts | 101° |
| 2026-04-25 19:41 | 46.74966 | -116.60920 | 38940 ft | 474 kts | 101° |
| 2026-04-25 19:42 | 46.73377 | -116.50018 | 38939 ft | 475 kts | 101° |
| 2026-04-25 19:42 | 46.71999 | -116.40628 | 38940 ft | 475 kts | 101° |
| 2026-04-25 19:43 | 46.70607 | -116.31205 | 38938 ft | 476 kts | 102° |
| 2026-04-25 19:43 | 46.69213 | -116.21825 | 38937 ft | 475 kts | 102° |
| 2026-04-25 19:44 | 46.67816 | -116.12485 | 38942 ft | 476 kts | 102° |
| 2026-04-25 19:44 | 46.66399 | -116.03060 | 38942 ft | 476 kts | 102° |
| 2026-04-25 19:45 | 46.64980 | -115.93670 | 38942 ft | 476 kts | 102° |
| 2026-04-25 19:45 | 46.63557 | -115.84324 | 38941 ft | 476 kts | 102° |
| 2026-04-25 19:46 | 46.62115 | -115.74910 | 38941 ft | 477 kts | 102° |
| 2026-04-25 19:46 | 46.60676 | -115.65570 | 38937 ft | 476 kts | 102° |
| 2026-04-25 19:47 | 46.59229 | -115.56224 | 38936 ft | 477 kts | 102° |
| 2026-04-25 19:47 | 46.57770 | -115.46851 | 38926 ft | 477 kts | 102° |
| 2026-04-25 19:48 | 46.56302 | -115.37481 | 38918 ft | 477 kts | 102° |
| 2026-04-25 19:48 | 46.54821 | -115.28077 | 38918 ft | 478 kts | 103° |
| 2026-04-25 19:49 | 46.53589 | -115.20305 | 38925 ft | 478 kts | 103° |
| 2026-04-25 19:49 | 46.51839 | -115.09321 | 38923 ft | 478 kts | 103° |
| 2026-04-25 19:50 | 46.49577 | -114.95228 | 38922 ft | 478 kts | 103° |
| 2026-04-25 19:51 | 46.48060 | -114.85843 | 38919 ft | 479 kts | 103° |
| 2026-04-25 19:51 | 46.46534 | -114.76455 | 38911 ft | 479 kts | 103° |
| 2026-04-25 19:52 | 46.45003 | -114.67088 | 38905 ft | 479 kts | 103° |
| 2026-04-25 19:52 | 46.43464 | -114.57728 | 38897 ft | 479 kts | 103° |
| 2026-04-25 19:53 | 46.41908 | -114.48319 | 38889 ft | 479 kts | 103° |
| 2026-04-25 19:53 | 46.40361 | -114.39008 | 38869 ft | 479 kts | 103° |
| 2026-04-25 19:54 | 46.38795 | -114.29641 | 38854 ft | 480 kts | 104° |
| 2026-04-25 19:54 | 46.37219 | -114.20251 | 38852 ft | 480 kts | 104° |
| 2026-04-25 19:55 | 46.35639 | -114.10893 | 38882 ft | 481 kts | 104° |
| 2026-04-25 19:55 | 46.34039 | -114.01487 | 38916 ft | 481 kts | 104° |
| 2026-04-25 19:56 | 46.32435 | -113.92094 | 38925 ft | 480 kts | 104° |
| 2026-04-25 19:56 | 46.30841 | -113.82807 | 38897 ft | 481 kts | 104° |
| 2026-04-25 19:57 | 46.29214 | -113.73375 | 38864 ft | 481 kts | 104° |
| 2026-04-25 19:57 | 46.27584 | -113.63981 | 38863 ft | 481 kts | 104° |
| 2026-04-25 19:58 | 46.25952 | -113.54630 | 38861 ft | 479 kts | 104° |
| 2026-04-25 19:58 | 46.25136 | -113.49968 | 38605 ft | 475 kts | 104° |
| 2026-04-25 19:58 | 46.24334 | -113.45402 | 38007 ft | 475 kts | 104° |
| 2026-04-25 19:58 | 46.23518 | -113.40774 | 37328 ft | 478 kts | 104° |
| 2026-04-25 19:59 | 46.22697 | -113.36130 | 36666 ft | 479 kts | 104° |
| 2026-04-25 19:59 | 46.21872 | -113.31467 | 36061 ft | 478 kts | 105° |
| 2026-04-25 19:59 | 46.21051 | -113.26841 | 35478 ft | 475 kts | 105° |
| 2026-04-25 19:59 | 46.20235 | -113.22249 | 34693 ft | 471 kts | 105° |
| 2026-04-25 20:00 | 46.19430 | -113.17738 | 33677 ft | 472 kts | 104° |
| 2026-04-25 20:00 | 46.18885 | -113.14703 | 32978 ft | 473 kts | 104° |
| 2026-04-25 20:00 | 46.17792 | -113.08640 | 31485 ft | 474 kts | 104° |
| 2026-04-25 20:00 | 46.16962 | -113.04031 | 29953 ft | 472 kts | 104° |
| 2026-04-25 20:01 | 46.15334 | -112.94968 | 26472 ft | 464 kts | 104° |
| 2026-04-25 20:01 | 46.14537 | -112.90552 | 25867 ft | 453 kts | 104° |
| 2026-04-25 20:01 | 46.13740 | -112.86150 | 25388 ft | 450 kts | 104° |
| 2026-04-25 20:02 | 46.12950 | -112.81810 | 24854 ft | 447 kts | 104° |
| 2026-04-25 20:02 | 46.12163 | -112.77495 | 24322 ft | 444 kts | 104° |
| 2026-04-25 20:02 | 46.11384 | -112.73229 | 23786 ft | 440 kts | 104° |
| 2026-04-25 20:02 | 46.10607 | -112.68992 | 23243 ft | 437 kts | 104° |
| 2026-04-25 20:03 | 46.09836 | -112.64785 | 22687 ft | 433 kts | 104° |
| 2026-04-25 20:03 | 46.09068 | -112.60605 | 22120 ft | 429 kts | 104° |
| 2026-04-25 20:03 | 46.08306 | -112.56471 | 21540 ft | 425 kts | 105° |
| 2026-04-25 20:03 | 46.07556 | -112.52410 | 20953 ft | 422 kts | 105° |
| 2026-04-25 20:04 | 46.06797 | -112.48309 | 20366 ft | 419 kts | 105° |
| 2026-04-25 20:04 | 46.06057 | -112.44319 | 19788 ft | 415 kts | 105° |
| 2026-04-25 20:04 | 46.05318 | -112.40340 | 19205 ft | 412 kts | 105° |
| 2026-04-25 20:04 | 46.04577 | -112.36358 | 18604 ft | 410 kts | 105° |
| 2026-04-25 20:05 | 46.03839 | -112.32407 | 18021 ft | 407 kts | 106° |
| 2026-04-25 20:05 | 46.03110 | -112.28512 | 17443 ft | 404 kts | 106° |
| 2026-04-25 20:05 | 46.02376 | -112.24597 | 16878 ft | 400 kts | 106° |
| 2026-04-25 20:05 | 46.01667 | -112.20825 | 16508 ft | 391 kts | 106° |
| 2026-04-25 20:06 | 46.00972 | -112.17123 | 16228 ft | 373 kts | 106° |
| 2026-04-25 20:06 | 46.00312 | -112.13618 | 16022 ft | 348 kts | 106° |
| 2026-04-25 20:06 | 45.99695 | -112.10355 | 15830 ft | 335 kts | 105° |
| 2026-04-25 20:06 | 45.99093 | -112.07176 | 15633 ft | 324 kts | 106° |
| 2026-04-25 20:07 | 45.98547 | -112.04054 | 15497 ft | 313 kts | 102° |
| 2026-04-25 20:07 | 45.98178 | -112.01038 | 15332 ft | 311 kts | 98° |
| 2026-04-25 20:07 | 45.97940 | -111.97877 | 14782 ft | 317 kts | 95° |
| 2026-04-25 20:07 | 45.97743 | -111.94737 | 14314 ft | 318 kts | 95° |
| 2026-04-25 20:08 | 45.97549 | -111.91595 | 13877 ft | 317 kts | 95° |
| 2026-04-25 20:08 | 45.97352 | -111.88472 | 13462 ft | 315 kts | 95° |
| 2026-04-25 20:08 | 45.97149 | -111.85332 | 13039 ft | 313 kts | 95° |
| 2026-04-25 20:08 | 45.96946 | -111.82252 | 12634 ft | 310 kts | 96° |
| 2026-04-25 20:09 | 45.96738 | -111.79153 | 12222 ft | 308 kts | 96° |
| 2026-04-25 20:09 | 45.96533 | -111.76109 | 11815 ft | 306 kts | 96° |
| 2026-04-25 20:09 | 45.96330 | -111.73096 | 11425 ft | 303 kts | 96° |
| 2026-04-25 20:09 | 45.96127 | -111.70099 | 11030 ft | 301 kts | 96° |
| 2026-04-25 20:10 | 45.95927 | -111.67142 | 10658 ft | 297 kts | 96° |
| 2026-04-25 20:10 | 45.95726 | -111.64192 | 10281 ft | 294 kts | 96° |
| 2026-04-25 20:10 | 45.95527 | -111.61303 | 9899 ft | 292 kts | 96° |
| 2026-04-25 20:10 | 45.95328 | -111.58418 | 9503 ft | 290 kts | 96° |
| 2026-04-25 20:11 | 45.95129 | -111.55535 | 9101 ft | 288 kts | 96° |
| 2026-04-25 20:11 | 45.94963 | -111.52700 | 8791 ft | 282 kts | 92° |
| 2026-04-25 20:11 | 45.94999 | -111.49955 | 8652 ft | 270 kts | 85° |
| 2026-04-25 20:11 | 45.95251 | -111.47311 | 8505 ft | 260 kts | 78° |
| 2026-04-25 20:12 | 45.95628 | -111.44833 | 8356 ft | 250 kts | 78° |
| 2026-04-25 20:12 | 45.95859 | -111.42419 | 8203 ft | 240 kts | 94° |
| 2026-04-25 20:12 | 45.95387 | -111.40214 | 8135 ft | 225 kts | 121° |
| 2026-04-25 20:12 | 45.94789 | -111.39005 | 8015 ft | 220 kts | 130° |
| 2026-04-25 20:13 | 45.93448 | -111.36975 | 7958 ft | 203 kts | 136° |
| 2026-04-25 20:13 | 45.92442 | -111.35568 | 7968 ft | 203 kts | 137° |
| 2026-04-25 20:13 | 45.91432 | -111.34175 | 7888 ft | 196 kts | 137° |
| 2026-04-25 20:13 | 45.90468 | -111.32843 | 7629 ft | 191 kts | 137° |
| 2026-04-25 20:14 | 45.89512 | -111.31520 | 7351 ft | 186 kts | 137° |
| 2026-04-25 20:14 | 45.88603 | -111.30260 | 7113 ft | 176 kts | 137° |
| 2026-04-25 20:14 | 45.87763 | -111.29092 | 6851 ft | 163 kts | 136° |
| 2026-04-25 20:14 | 45.86977 | -111.28000 | 6617 ft | 153 kts | 136° |
| 2026-04-25 20:15 | 45.86237 | -111.26972 | 6419 ft | 142 kts | 136° |
| 2026-04-25 20:15 | 45.85541 | -111.26003 | 6242 ft | 139 kts | 136° |
| 2026-04-25 20:15 | 45.84848 | -111.25041 | 6073 ft | 138 kts | 136° |
| 2026-04-25 20:15 | 45.84156 | -111.24078 | 5901 ft | 138 kts | 136° |
| 2026-04-25 20:16 | 45.83477 | -111.23131 | 5725 ft | 137 kts | 137° |
| 2026-04-25 20:16 | 45.82781 | -111.22169 | 5541 ft | 137 kts | 136° |
| 2026-04-25 20:16 | 45.82097 | -111.21219 | 5354 ft | 137 kts | 136° |
| 2026-04-25 20:16 | 45.81424 | -111.20283 | 5168 ft | 136 kts | 136° |
| 2026-04-25 20:17 | 45.80735 | -111.19325 | 4980 ft | 136 kts | 136° |
| 2026-04-25 20:17 | 45.80061 | -111.18388 | 4799 ft | 135 kts | 136° |
| 2026-04-25 20:17 | 45.79385 | -111.17448 | 4618 ft | 135 kts | 136° |
| 2026-04-25 20:17 | 45.78710 | -111.16509 | 4445 ft | 133 kts | 136° |
| 2026-04-25 20:18 | 45.78192 | -111.15791 | 4449 ft | 62 kts | 136° |
| 2026-04-25 20:18 | 45.78036 | -111.15574 | 4452 ft | 21 kts | 136° |
| 2026-04-25 20:18 | 45.77921 | -111.15547 | 4453 ft | 18 kts | 227° |
| 2026-04-25 20:18 | 45.77843 | -111.15678 | 4456 ft | 15 kts | 274° |
| 2026-04-25 20:19 | 45.77817 | -111.15818 | 4457 ft | 13 kts | 264° |
| 2026-04-25 20:19 | 45.77806 | -111.15899 | 4457 ft | 6 kts | 240° |
| 2026-04-25 20:19 | 45.77799 | -111.15939 | 4458 ft | 0 kts | 266° |
| 2026-04-25 20:19 | 45.77799 | -111.15940 | 4458 ft | 0 kts | 266° |